createdAt,value
2023-03-17T00:01:16.628Z,99126.22
2023-03-17T00:03:47.758Z,99126.75
2023-03-17T00:06:17.795Z,99124.97
2023-03-17T00:08:47.252Z,99135.59
2023-03-17T00:11:17.170Z,99127.19
2023-03-17T00:13:46.069Z,99125.56
2023-03-17T00:16:19.994Z,99124.09
2023-03-17T00:18:49.350Z,99121.28
2023-03-17T00:21:19.687Z,99134.72
2023-03-17T00:23:51.637Z,99134.38
2023-03-17T00:26:19.627Z,99137.13
2023-03-17T00:28:47.160Z,99144.78
2023-03-17T00:31:16.886Z,99140.94
2023-03-17T00:33:46.577Z,99142.81
2023-03-17T00:36:17.921Z,99154.22
2023-03-17T00:38:45.934Z,99147.88
2023-03-17T00:41:14.044Z,99151.97
2023-03-17T00:43:42.787Z,99153.78
2023-03-17T00:46:14.569Z,99159.25
2023-03-17T00:48:43.333Z,99154.72
2023-03-17T00:51:12.233Z,99159.97
2023-03-17T00:53:40.419Z,99168.28
2023-03-17T00:56:14.291Z,99187.78
2023-03-17T00:58:42.330Z,99198.84
2023-03-17T01:01:10.708Z,99214.78
2023-03-17T01:03:38.705Z,99217.75
2023-03-17T01:06:08.826Z,99203.44
2023-03-17T01:08:38.604Z,99195.13
2023-03-17T01:11:06.635Z,99184.50
2023-03-17T01:13:34.302Z,99180.41
2023-03-17T01:16:02.587Z,99178.94
2023-03-17T01:18:30.300Z,99181.44
2023-03-17T01:20:58.059Z,99189.25
2023-03-17T01:23:25.926Z,99191.03
2023-03-17T01:25:55.051Z,99181.91
2023-03-17T01:28:23.152Z,99180.72
2023-03-17T01:30:51.049Z,99180.53
2023-03-17T01:33:18.996Z,99190.75
2023-03-17T01:35:46.655Z,99200.81
2023-03-17T01:38:14.858Z,99189.84
2023-03-17T01:40:45.885Z,99183.25
2023-03-17T01:43:22.413Z,99165.72
2023-03-17T01:46:26.003Z,99158.59
2023-03-17T01:49:23.523Z,99135.94
2023-03-17T01:51:58.612Z,99132.06
2023-03-17T01:54:31.528Z,99125.47
2023-03-17T01:57:03.712Z,99125.28
2023-03-17T01:59:37.600Z,99110.19
2023-03-17T02:02:09.007Z,99114.63
2023-03-17T02:04:36.844Z,99103.31
2023-03-17T02:07:05.057Z,99090.25
2023-03-17T02:09:33.973Z,99088.53
2023-03-17T02:12:03.719Z,99096.97
2023-03-17T02:14:32.548Z,99085.78
2023-03-17T02:17:00.062Z,99073.97
2023-03-17T02:19:27.606Z,99074.13
2023-03-17T02:21:57.897Z,99070.09
2023-03-17T02:24:33.142Z,99074.47
2023-03-17T02:27:03.605Z,99079.09
2023-03-17T02:29:34.013Z,99067.06
2023-03-17T02:32:01.855Z,99075.84
2023-03-17T02:34:29.383Z,99065.63
2023-03-17T02:36:59.145Z,99066.72
2023-03-17T02:39:27.395Z,99074.28
2023-03-17T02:41:54.916Z,99069.41
2023-03-17T02:44:22.521Z,99080.66
2023-03-17T02:46:50.166Z,99087.88
2023-03-17T02:49:18.743Z,99095.44
2023-03-17T02:51:46.268Z,99086.13
2023-03-17T02:54:15.310Z,99076.66
2023-03-17T02:56:42.791Z,99080.47
2023-03-17T02:59:10.445Z,99081.41
2023-03-17T03:01:38.740Z,99090.06
2023-03-17T03:04:07.097Z,99087.66
2023-03-17T03:06:34.641Z,99089.22
2023-03-17T03:09:02.130Z,99098.22
2023-03-17T03:11:31.031Z,99094.34
2023-03-17T03:13:58.510Z,99093.41
2023-03-17T03:16:26.189Z,99092.03
2023-03-17T03:18:53.736Z,99095.06
2023-03-17T03:21:21.982Z,99098.66
2023-03-17T03:23:49.530Z,99104.31
2023-03-17T03:26:17.215Z,99093.34
2023-03-17T03:28:46.151Z,99098.31
2023-03-17T03:31:13.803Z,99098.41
2023-03-17T03:33:41.478Z,99093.88
2023-03-17T03:36:09.984Z,99100.38
2023-03-17T03:38:37.764Z,99088.22
2023-03-17T03:41:06.245Z,99078.00
2023-03-17T03:43:33.849Z,99077.03
2023-03-17T03:46:03.059Z,99079.34
2023-03-17T03:48:30.726Z,99076.84
2023-03-17T03:50:59.506Z,99066.09
2023-03-17T03:53:27.511Z,99063.59
2023-03-17T03:55:55.900Z,99054.06
2023-03-17T03:58:23.919Z,99052.16
2023-03-17T04:00:51.488Z,99051.56
2023-03-17T04:03:20.557Z,99036.22
2023-03-17T04:05:48.045Z,99046.25
2023-03-17T04:08:15.791Z,99046.84
2023-03-17T04:10:43.419Z,99043.00
2023-03-17T04:13:10.886Z,99049.25
2023-03-17T04:15:38.424Z,99058.34
2023-03-17T04:18:06.220Z,99057.13
2023-03-17T04:20:35.348Z,99054.88
2023-03-17T04:23:02.828Z,99059.16
2023-03-17T04:25:30.794Z,99066.47
2023-03-17T04:27:58.784Z,99056.41
2023-03-17T04:30:26.473Z,99052.84
2023-03-17T04:32:53.993Z,99054.72
2023-03-17T04:35:22.632Z,99061.84
2023-03-17T04:37:51.844Z,99065.44
2023-03-17T04:40:20.108Z,99065.53
2023-03-17T04:42:47.713Z,99064.94
2023-03-17T04:45:16.595Z,99049.56
2023-03-17T04:47:45.891Z,99046.22
2023-03-17T04:50:14.124Z,99049.06
2023-03-17T04:52:42.025Z,99048.31
2023-03-17T04:55:11.796Z,99048.31
2023-03-17T04:57:39.268Z,99061.69
2023-03-17T05:00:08.353Z,99047.72
2023-03-17T05:02:35.900Z,99054.22
2023-03-17T05:05:03.395Z,99055.09
2023-03-17T05:07:33.870Z,99050.88
2023-03-17T05:10:02.034Z,99049.78
2023-03-17T05:12:30.899Z,99047.88
2023-03-17T05:14:58.501Z,99042.19
2023-03-17T05:17:26.001Z,99041.72
2023-03-17T05:19:53.448Z,99046.09
2023-03-17T05:22:21.026Z,99047.72
2023-03-17T05:24:48.611Z,99051.75
2023-03-17T05:27:16.395Z,99049.69
2023-03-17T05:29:45.210Z,99049.78
2023-03-17T05:32:13.538Z,99053.75
2023-03-17T05:34:41.032Z,99054.94
2023-03-17T05:37:08.649Z,99040.00
2023-03-17T05:39:36.306Z,99048.88
2023-03-17T05:42:04.072Z,99039.00
2023-03-17T05:44:31.744Z,99045.88
2023-03-17T05:47:00.835Z,99036.16
2023-03-17T05:49:28.693Z,99057.59
2023-03-17T05:51:56.795Z,99034.88
2023-03-17T05:54:24.325Z,99033.06
2023-03-17T05:56:52.275Z,99031.09
2023-03-17T05:59:19.753Z,99037.03
2023-03-17T06:01:47.316Z,99042.66
2023-03-17T06:04:16.115Z,99044.28
2023-03-17T06:06:43.655Z,99049.22
2023-03-17T06:09:11.124Z,99033.06
2023-03-17T06:11:38.900Z,99037.44
2023-03-17T06:14:07.214Z,99037.94
2023-03-17T06:16:34.742Z,99040.69
2023-03-17T06:19:02.436Z,99030.16
2023-03-17T06:21:31.358Z,99030.25
2023-03-17T06:23:58.827Z,99018.56
2023-03-17T06:26:27.097Z,99042.50
2023-03-17T06:28:54.829Z,99046.44
2023-03-17T06:31:23.823Z,99046.69
2023-03-17T06:33:51.461Z,99047.38
2023-03-17T06:36:18.923Z,99058.63
2023-03-17T06:38:47.748Z,99055.34
2023-03-17T06:41:16.082Z,99046.41
2023-03-17T06:43:43.549Z,99048.03
2023-03-17T06:46:11.115Z,99056.19
2023-03-17T06:48:39.168Z,99044.44
2023-03-17T06:51:07.053Z,99047.53
2023-03-17T06:53:34.675Z,99059.53
2023-03-17T06:56:04.927Z,99052.00
2023-03-17T06:58:33.094Z,99061.91
2023-03-17T07:01:00.604Z,99059.84
2023-03-17T07:03:28.570Z,99058.06
2023-03-17T07:05:56.061Z,99044.44
2023-03-17T07:08:23.560Z,99044.75
2023-03-17T07:10:51.531Z,99057.22
2023-03-17T07:13:20.847Z,99058.22
2023-03-17T07:15:49.284Z,99052.13
2023-03-17T07:18:17.072Z,99057.84
2023-03-17T07:20:44.788Z,99066.97
2023-03-17T07:23:15.595Z,99064.78
2023-03-17T07:25:43.630Z,99061.44
2023-03-17T07:28:11.322Z,99062.59
2023-03-17T07:30:40.227Z,99067.25
2023-03-17T07:33:07.770Z,99069.94
2023-03-17T07:35:35.480Z,99066.41
2023-03-17T07:38:03.076Z,99055.34
2023-03-17T07:40:30.693Z,99061.94
2023-03-17T07:42:59.439Z,99057.56
2023-03-17T07:45:27.841Z,99065.66
2023-03-17T07:47:56.736Z,99055.66
2023-03-17T07:50:24.278Z,99060.22
2023-03-17T07:52:51.758Z,99049.09
2023-03-17T07:55:19.415Z,99038.31
2023-03-17T07:57:47.071Z,99043.38
2023-03-17T08:00:16.241Z,99047.06
2023-03-17T08:02:44.446Z,99038.56
2023-03-17T08:05:16.147Z,99038.94
2023-03-17T08:07:43.723Z,99031.03
2023-03-17T08:10:13.767Z,99037.19
2023-03-17T08:12:41.624Z,99038.78
2023-03-17T08:15:10.210Z,99035.97
2023-03-17T08:17:37.809Z,99045.25
2023-03-17T08:20:05.960Z,99051.75
2023-03-17T08:22:34.915Z,99044.34
2023-03-17T08:25:02.548Z,99040.97
2023-03-17T08:27:31.957Z,99045.28
2023-03-17T08:30:01.052Z,99045.38
2023-03-17T08:32:28.591Z,99050.97
2023-03-17T08:34:56.176Z,99057.59
2023-03-17T08:37:24.604Z,99058.38
2023-03-17T08:39:53.461Z,99057.63
2023-03-17T08:42:21.489Z,99065.75
2023-03-17T08:44:48.991Z,99059.47
2023-03-17T08:47:16.525Z,99057.03
2023-03-17T08:49:44.031Z,99061.91
2023-03-17T08:52:11.569Z,99065.88
2023-03-17T08:54:39.104Z,99061.84
2023-03-17T08:57:07.953Z,99063.03
2023-03-17T08:59:35.508Z,99067.72
2023-03-17T09:02:02.941Z,99064.75
2023-03-17T09:04:30.448Z,99057.47
2023-03-17T09:07:03.784Z,99067.19
2023-03-17T09:09:32.074Z,99061.03
2023-03-17T09:11:59.562Z,99053.00
2023-03-17T09:14:29.548Z,99059.78
2023-03-17T09:16:57.192Z,99056.03
2023-03-17T09:19:25.023Z,99057.75
2023-03-17T09:21:52.802Z,99051.34
2023-03-17T09:24:21.200Z,99058.94
2023-03-17T09:26:48.596Z,99048.47
2023-03-17T09:29:16.373Z,99047.72
2023-03-17T09:31:45.159Z,99044.47
2023-03-17T09:34:12.654Z,99056.47
2023-03-17T09:36:40.112Z,99067.16
2023-03-17T09:39:07.533Z,99061.91
2023-03-17T09:42:00.435Z,99065.03
2023-03-17T09:44:47.616Z,99077.06
2023-03-17T09:47:36.491Z,99084.97
2023-03-17T09:50:10.572Z,99072.59
2023-03-17T09:52:38.796Z,99070.25
2023-03-17T09:55:09.253Z,99063.78
2023-03-17T09:57:38.789Z,99066.09
2023-03-17T10:00:14.721Z,99073.16
2023-03-17T10:02:44.076Z,99059.53
2023-03-17T10:05:20.490Z,99052.97
2023-03-17T10:07:56.609Z,99046.41
2023-03-17T10:10:30.896Z,99043.59
2023-03-17T10:13:09.374Z,99043.59
2023-03-17T10:15:42.909Z,99049.53
2023-03-17T10:18:14.239Z,99054.81
2023-03-17T10:20:51.546Z,99060.09
2023-03-17T10:23:24.701Z,99064.06
2023-03-17T10:25:53.060Z,99057.00
2023-03-17T10:28:27.342Z,99060.09
2023-03-17T10:30:55.201Z,99064.28
2023-03-17T10:33:24.033Z,99064.09
2023-03-17T10:35:51.602Z,99057.63
2023-03-17T10:38:21.911Z,99065.22
2023-03-17T10:40:58.034Z,99060.06
2023-03-17T10:43:30.885Z,99059.72
2023-03-17T10:46:03.543Z,99061.59
2023-03-17T10:48:36.989Z,99052.22
2023-03-17T10:51:09.000Z,99051.59
2023-03-17T10:53:43.230Z,99037.44
2023-03-17T10:56:20.224Z,99050.16
2023-03-17T10:58:49.808Z,99038.66
2023-03-17T11:01:21.793Z,99033.69
2023-03-17T11:03:51.491Z,99034.75
2023-03-17T11:06:20.573Z,99032.91
2023-03-17T11:08:50.290Z,99021.19
2023-03-17T11:11:27.042Z,99021.94
2023-03-17T11:14:03.000Z,99037.28
2023-03-17T11:16:33.070Z,99036.59
2023-03-17T11:19:03.437Z,99038.31
2023-03-17T11:21:32.502Z,99024.31
2023-03-17T11:24:08.129Z,99023.53
2023-03-17T11:26:54.207Z,99030.66
2023-03-17T11:29:27.589Z,99025.66
2023-03-17T11:32:02.377Z,99017.91
2023-03-17T11:34:44.558Z,99015.25
2023-03-17T11:37:22.118Z,99009.16
2023-03-17T11:39:58.756Z,99008.22
2023-03-17T11:42:32.215Z,99011.34
2023-03-17T11:45:22.565Z,99014.97
2023-03-17T11:48:15.080Z,99006.91
2023-03-17T11:50:53.127Z,99003.28
2023-03-17T11:53:51.302Z,99007.00
2023-03-17T11:56:21.786Z,98997.47
2023-03-17T11:58:54.893Z,98997.47
2023-03-17T12:01:27.951Z,98990.88
2023-03-17T12:04:09.810Z,98993.22
2023-03-17T12:06:44.448Z,98990.13
2023-03-17T12:09:22.085Z,98994.72
2023-03-17T12:11:51.777Z,98992.31
2023-03-17T12:14:27.954Z,98993.72
2023-03-17T12:17:04.701Z,98987.38
2023-03-17T12:19:40.472Z,98985.41
2023-03-17T12:22:19.184Z,98984.84
2023-03-17T12:24:54.534Z,98979.75
2023-03-17T12:27:25.900Z,98980.16
2023-03-17T12:29:58.096Z,98989.31
2023-03-17T12:32:29.579Z,98991.00
2023-03-17T12:34:59.577Z,98975.28
2023-03-17T12:37:30.018Z,98976.00
2023-03-17T12:40:06.684Z,98965.56
2023-03-17T12:42:42.428Z,98955.91
2023-03-17T12:45:42.058Z,98955.34
2023-03-17T12:48:26.364Z,98958.38
2023-03-17T12:51:22.290Z,98955.94
2023-03-17T12:53:51.782Z,98958.78
2023-03-17T12:56:24.729Z,98948.88
2023-03-17T12:58:53.889Z,98957.97
2023-03-17T13:01:29.829Z,98953.69
2023-03-17T13:04:02.966Z,98957.44
2023-03-17T13:06:32.133Z,98940.13
2023-03-17T13:09:39.480Z,98951.16
2023-03-17T13:12:57.081Z,98957.97
2023-03-17T13:15:30.654Z,98949.50
2023-03-17T13:18:24.698Z,98945.81
2023-03-17T13:21:10.248Z,98939.84
2023-03-17T13:23:42.034Z,98932.59
2023-03-17T13:26:13.261Z,98933.06
2023-03-17T13:28:50.089Z,98928.78
2023-03-17T13:31:34.498Z,98929.06
2023-03-17T13:34:15.087Z,98925.25
2023-03-17T13:36:55.548Z,98927.25
2023-03-17T13:39:48.612Z,98929.13
2023-03-17T13:42:29.335Z,98920.41
2023-03-17T13:45:16.568Z,98925.38
2023-03-17T13:47:45.746Z,98928.81
2023-03-17T13:50:16.817Z,98936.06
2023-03-17T13:52:49.330Z,98933.66
2023-03-17T13:55:35.860Z,98929.13
2023-03-17T13:58:34.175Z,98919.75
2023-03-17T14:01:07.543Z,98920.63
2023-03-17T14:03:41.659Z,98910.53
2023-03-17T14:06:11.902Z,98910.50
2023-03-17T14:08:46.009Z,98906.56
2023-03-17T14:11:23.972Z,98911.22
2023-03-17T14:14:08.910Z,98909.22
2023-03-17T14:16:43.503Z,98911.78
2023-03-17T14:19:18.151Z,98905.97
2023-03-17T14:21:45.638Z,98909.50
2023-03-17T14:24:20.665Z,98908.94
2023-03-17T14:26:48.760Z,98922.28
2023-03-17T14:29:18.515Z,98917.75
2023-03-17T14:31:52.799Z,98916.91
2023-03-17T14:34:22.937Z,98917.78
2023-03-17T14:36:52.477Z,98916.91
2023-03-17T14:39:25.721Z,98918.63
2023-03-17T14:42:01.560Z,98907.41
2023-03-17T14:44:36.090Z,98908.00
2023-03-17T14:47:08.476Z,98913.09
2023-03-17T14:49:37.232Z,98909.50
2023-03-17T14:52:05.087Z,98895.03
2023-03-17T14:54:35.783Z,98907.50
2023-03-17T14:57:06.979Z,98903.00
2023-03-17T14:59:36.246Z,98895.50
2023-03-17T15:02:19.092Z,98896.75
2023-03-17T15:04:54.446Z,98897.84
2023-03-17T15:07:36.842Z,98898.28
2023-03-17T15:10:07.279Z,98903.56
2023-03-17T15:12:34.797Z,98904.56
2023-03-17T15:15:05.404Z,98904.56
2023-03-17T15:17:37.037Z,98891.06
2023-03-17T15:20:07.714Z,98891.91
2023-03-17T15:22:43.231Z,98901.13
2023-03-17T15:25:20.933Z,98899.75
2023-03-17T15:27:48.902Z,98908.66
2023-03-17T15:30:17.877Z,98893.91
2023-03-17T15:32:52.828Z,98894.47
2023-03-17T15:35:20.243Z,98894.28
2023-03-17T15:37:48.516Z,98890.47
2023-03-17T15:40:16.563Z,98888.19
2023-03-17T15:42:45.288Z,98894.13
2023-03-17T15:45:16.212Z,98902.63
2023-03-17T15:47:47.277Z,98898.88
2023-03-17T15:50:17.815Z,98898.66
2023-03-17T15:52:45.837Z,98890.81
2023-03-17T15:55:19.129Z,98875.25
2023-03-17T15:57:54.723Z,98880.59
2023-03-17T16:00:25.233Z,98882.00
2023-03-17T16:02:56.148Z,98890.25
2023-03-17T16:05:26.489Z,98888.75
2023-03-17T16:07:54.717Z,98892.31
2023-03-17T16:10:25.219Z,98885.97
2023-03-17T16:12:53.017Z,98898.06
2023-03-17T16:15:23.611Z,98907.34
2023-03-17T16:17:55.683Z,98905.47
2023-03-17T16:20:25.980Z,98908.38
2023-03-17T16:22:54.822Z,98905.69
2023-03-17T16:25:25.901Z,98893.09
2023-03-17T16:27:55.088Z,98894.44
2023-03-17T16:30:24.774Z,98902.28
2023-03-17T16:32:54.094Z,98896.91
2023-03-17T16:35:23.624Z,98887.59
2023-03-17T16:37:54.087Z,98873.31
2023-03-17T16:40:24.930Z,98886.50
2023-03-17T16:42:53.213Z,98868.34
2023-03-17T16:45:26.966Z,98864.16
2023-03-17T16:47:57.511Z,98858.66
2023-03-17T16:50:27.906Z,98868.13
2023-03-17T16:52:55.466Z,98869.78
2023-03-17T16:55:24.072Z,98883.59
2023-03-17T16:57:54.262Z,98889.97
2023-03-17T17:00:25.016Z,98895.75
2023-03-17T17:02:53.827Z,98885.63
2023-03-17T17:05:24.895Z,98882.22
2023-03-17T17:07:56.060Z,98889.44
2023-03-17T17:10:25.560Z,98894.56
2023-03-17T17:12:53.513Z,98886.91
2023-03-17T17:15:22.627Z,98886.44
2023-03-17T17:17:52.702Z,98884.47
2023-03-17T17:20:24.772Z,98892.31
2023-03-17T17:22:52.735Z,98920.09
2023-03-17T17:25:20.233Z,98940.44
2023-03-17T17:27:48.470Z,98932.88
2023-03-17T17:30:17.964Z,98932.00
2023-03-17T17:32:45.707Z,98929.81
2023-03-17T17:35:13.740Z,98935.56
2023-03-17T17:37:43.150Z,98923.63
2023-03-17T17:40:14.189Z,98936.88
2023-03-17T17:42:41.701Z,98948.47
2023-03-17T17:45:10.172Z,98953.47
2023-03-17T17:47:37.798Z,98933.00
2023-03-17T17:50:07.002Z,98930.44
2023-03-17T17:52:34.879Z,98925.44
2023-03-17T17:55:03.794Z,98967.97
2023-03-17T17:57:31.274Z,98986.25
2023-03-17T17:59:58.691Z,98990.22
2023-03-17T18:02:26.206Z,98987.34
2023-03-17T18:04:53.708Z,98977.94
2023-03-17T18:07:21.238Z,98975.63
2023-03-17T18:09:48.720Z,98968.66
2023-03-17T18:12:17.534Z,98955.13
2023-03-17T18:14:44.978Z,98953.88
2023-03-17T18:17:12.831Z,98949.03
2023-03-17T18:19:40.329Z,98957.31
2023-03-17T18:22:08.304Z,98973.41
2023-03-17T18:24:36.080Z,98956.94
2023-03-17T18:27:04.520Z,98949.50
2023-03-17T18:29:33.314Z,98944.28
2023-03-17T18:32:00.932Z,98922.09
2023-03-17T18:34:32.695Z,98910.00
2023-03-17T18:37:01.806Z,98944.72
2023-03-17T18:39:29.736Z,98969.06
2023-03-17T18:41:57.428Z,98971.00
2023-03-17T18:44:25.219Z,99003.03
2023-03-17T18:46:53.987Z,99003.88
2023-03-17T18:49:23.933Z,99005.09
2023-03-17T18:51:51.478Z,98991.06
2023-03-17T18:54:18.922Z,98978.56
2023-03-17T18:56:46.353Z,98963.22
2023-03-17T18:59:13.943Z,98944.84
2023-03-17T19:01:41.644Z,98935.97
2023-03-17T19:04:10.468Z,98956.91
2023-03-17T19:06:39.515Z,98938.03
2023-03-17T19:09:09.004Z,98977.47
2023-03-17T19:11:38.724Z,99000.38
2023-03-17T19:14:06.466Z,99015.56
2023-03-17T19:16:34.444Z,99012.25
2023-03-17T19:19:02.591Z,99014.44
2023-03-17T19:21:32.402Z,99007.59
2023-03-17T19:24:01.757Z,98996.66
2023-03-17T19:26:30.326Z,98994.13
2023-03-17T19:28:58.276Z,98988.91
2023-03-17T19:31:25.981Z,98985.97
2023-03-17T19:33:55.296Z,98991.13
2023-03-17T19:36:22.791Z,98976.28
2023-03-17T19:38:51.784Z,98976.09
2023-03-17T19:41:19.259Z,98964.81
2023-03-17T19:43:46.731Z,98965.69
2023-03-17T19:46:14.364Z,98970.34
2023-03-17T19:48:42.040Z,98976.16
2023-03-17T19:51:09.764Z,98966.53
2023-03-17T19:53:38.132Z,98963.75
2023-03-17T19:56:07.795Z,98959.38
2023-03-17T19:58:35.755Z,98961.03
2023-03-17T20:01:04.256Z,98966.66
2023-03-17T20:03:32.066Z,98964.41
2023-03-17T20:06:00.969Z,98968.78
2023-03-17T20:08:28.504Z,98970.09
2023-03-17T20:10:56.019Z,98983.13
2023-03-17T20:13:24.944Z,98982.91
2023-03-17T20:15:52.779Z,98985.22
2023-03-17T20:18:20.513Z,98997.06
2023-03-17T20:20:52.311Z,99001.13
2023-03-17T20:23:20.226Z,99000.34
2023-03-17T20:25:49.291Z,99003.03
2023-03-17T20:28:17.831Z,99001.75
2023-03-17T20:30:47.849Z,98994.94
2023-03-17T20:33:15.559Z,99001.56
2023-03-17T20:35:45.983Z,99000.31
2023-03-17T20:38:14.421Z,99013.19
2023-03-17T20:40:42.704Z,99004.81
2023-03-17T20:43:10.663Z,99018.59
2023-03-17T20:45:38.364Z,99024.25
2023-03-17T20:48:10.513Z,99018.09
2023-03-17T20:50:38.149Z,99019.50
2023-03-17T20:53:05.739Z,99025.22
2023-03-17T20:55:33.210Z,99015.91
2023-03-17T20:58:01.859Z,99020.88
2023-03-17T21:00:31.850Z,99026.09
2023-03-17T21:03:00.245Z,99032.41
2023-03-17T21:05:29.414Z,99035.34
2023-03-17T21:07:57.640Z,99033.94
2023-03-17T21:10:25.328Z,99020.44
2023-03-17T21:12:52.779Z,99025.31
2023-03-17T21:15:22.728Z,99035.78
2023-03-17T21:17:50.893Z,99025.00
2023-03-17T21:20:19.376Z,99028.34
2023-03-17T21:22:48.165Z,99033.28
2023-03-17T21:25:15.672Z,99036.63
2023-03-17T21:27:43.952Z,99039.53
2023-03-17T21:30:14.308Z,99038.22
2023-03-17T21:32:42.598Z,99040.63
2023-03-17T21:35:10.480Z,99037.63
2023-03-17T21:37:38.034Z,99034.50
2023-03-17T21:40:08.063Z,99040.44
2023-03-17T21:42:35.858Z,99041.81
2023-03-17T21:45:03.380Z,99038.47
2023-03-17T21:47:31.010Z,99033.47
2023-03-17T21:49:58.807Z,99023.19
2023-03-17T21:52:26.966Z,99037.94
2023-03-17T21:54:54.625Z,99035.09
2023-03-17T21:57:23.785Z,99023.66
2023-03-17T21:59:51.222Z,99027.69
2023-03-17T22:02:18.712Z,99036.88
2023-03-17T22:04:47.003Z,99031.53
2023-03-17T22:07:14.846Z,99021.59
2023-03-17T22:09:42.414Z,99028.88
2023-03-17T22:12:10.198Z,99030.72
2023-03-17T22:14:39.215Z,99026.31
2023-03-17T22:17:06.728Z,99026.50
2023-03-17T22:19:34.245Z,99035.50
2023-03-17T22:22:03.647Z,99035.50
2023-03-17T22:24:32.306Z,99041.28
2023-03-17T22:26:59.808Z,99037.53
2023-03-17T22:29:27.280Z,99043.63
2023-03-17T22:31:56.107Z,99047.06
2023-03-17T22:34:24.047Z,99050.50
2023-03-17T22:36:51.691Z,99050.28
2023-03-17T22:39:19.275Z,99056.16
2023-03-17T22:41:46.919Z,99063.09
2023-03-17T22:44:14.464Z,99063.41
2023-03-17T22:46:42.245Z,99058.94
2023-03-17T22:49:11.239Z,99067.38
2023-03-17T22:51:41.095Z,99070.06
2023-03-17T22:54:11.164Z,99074.25
2023-03-17T22:56:38.962Z,99078.94
2023-03-17T22:59:06.632Z,99069.09
2023-03-17T23:01:34.251Z,99082.03
2023-03-17T23:04:02.148Z,99084.47
2023-03-17T23:06:31.167Z,99084.47
2023-03-17T23:08:58.785Z,99076.56
2023-03-17T23:11:27.903Z,99077.22
2023-03-17T23:13:55.879Z,99085.34
2023-03-17T23:16:23.626Z,99083.72
2023-03-17T23:18:51.688Z,99087.69
2023-03-17T23:21:22.919Z,99084.28
2023-03-17T23:23:51.760Z,99084.03
2023-03-17T23:26:19.258Z,99077.44
2023-03-17T23:28:47.494Z,99083.31
2023-03-17T23:31:15.783Z,99078.94
2023-03-17T23:33:43.634Z,99078.06
2023-03-17T23:36:13.883Z,99087.47
2023-03-17T23:38:41.826Z,99078.59
2023-03-17T23:41:11.095Z,99085.34
2023-03-17T23:43:39.076Z,99089.06
2023-03-17T23:46:06.929Z,99088.22
2023-03-17T23:48:34.515Z,99082.47
2023-03-17T23:51:02.942Z,99080.84
2023-03-17T23:53:30.410Z,99080.94
2023-03-17T23:55:59.136Z,99080.63
2023-03-17T23:58:28.392Z,99076.59
